sensor_id;sensor_type;location;lat;lon;timestamp;temperature;humidity
6379;DHT22;3222;48.858;10.128;2022-11-14T00:01:36;7.60;99.90
6379;DHT22;3222;48.858;10.128;2022-11-14T00:04:20;7.60;99.90
6379;DHT22;3222;48.858;10.128;2022-11-14T00:07:04;7.60;99.90
6379;DHT22;3222;48.858;10.128;2022-11-14T00:09:48;7.60;99.90
6379;DHT22;3222;48.858;10.128;2022-11-14T00:12:32;7.60;99.90
6379;DHT22;3222;48.858;10.128;2022-11-14T00:15:17;7.50;99.90
6379;DHT22;3222;48.858;10.128;2022-11-14T00:18:00;7.40;99.90
6379;DHT22;3222;48.858;10.128;2022-11-14T00:20:49;7.30;99.90
6379;DHT22;3222;48.858;10.128;2022-11-14T00:23:33;7.30;99.90
6379;DHT22;3222;48.858;10.128;2022-11-14T00:26:18;7.30;99.90
6379;DHT22;3222;48.858;10.128;2022-11-14T00:29:02;7.30;99.90
6379;DHT22;3222;48.858;10.128;2022-11-14T00:31:46;7.30;99.90
6379;DHT22;3222;48.858;10.128;2022-11-14T00:34:31;7.30;99.90
6379;DHT22;3222;48.858;10.128;2022-11-14T00:37:15;7.20;99.90
6379;DHT22;3222;48.858;10.128;2022-11-14T00:39:59;7.20;99.90
6379;DHT22;3222;48.858;10.128;2022-11-14T00:42:44;7.00;99.90
6379;DHT22;3222;48.858;10.128;2022-11-14T00:45:28;7.00;99.90
6379;DHT22;3222;48.858;10.128;2022-11-14T00:48:13;7.00;99.90
6379;DHT22;3222;48.858;10.128;2022-11-14T00:50:57;7.00;99.90
6379;DHT22;3222;48.858;10.128;2022-11-14T00:53:41;7.00;99.90
6379;DHT22;3222;48.858;10.128;2022-11-14T00:56:25;7.00;99.90
6379;DHT22;3222;48.858;10.128;2022-11-14T00:59:09;6.90;99.90
6379;DHT22;3222;48.858;10.128;2022-11-14T01:01:54;7.00;99.90
6379;DHT22;3222;48.858;10.128;2022-11-14T01:04:38;7.00;99.90
6379;DHT22;3222;48.858;10.128;2022-11-14T01:07:22;6.90;99.90
6379;DHT22;3222;48.858;10.128;2022-11-14T01:10:07;7.00;99.90
6379;DHT22;3222;48.858;10.128;2022-11-14T01:12:51;7.00;99.90
6379;DHT22;3222;48.858;10.128;2022-11-14T01:15:40;7.00;99.90
6379;DHT22;3222;48.858;10.128;2022-11-14T01:18:25;7.00;99.90
6379;DHT22;3222;48.858;10.128;2022-11-14T01:21:11;7.00;99.90
6379;DHT22;3222;48.858;10.128;2022-11-14T01:23:56;7.10;99.90
6379;DHT22;3222;48.858;10.128;2022-11-14T01:26:40;7.10;99.90
6379;DHT22;3222;48.858;10.128;2022-11-14T01:29:24;7.00;99.90
6379;DHT22;3222;48.858;10.128;2022-11-14T01:32:08;7.00;99.90
6379;DHT22;3222;48.858;10.128;2022-11-14T01:34:52;7.00;99.90
6379;DHT22;3222;48.858;10.128;2022-11-14T01:37:36;7.00;99.90
6379;DHT22;3222;48.858;10.128;2022-11-14T01:40:20;6.90;99.90
6379;DHT22;3222;48.858;10.128;2022-11-14T01:43:27;6.90;99.90
6379;DHT22;3222;48.858;10.128;2022-11-14T01:46:25;6.90;99.90
6379;DHT22;3222;48.858;10.128;2022-11-14T01:49:19;6.80;99.90
6379;DHT22;3222;48.858;10.128;2022-11-14T01:52:10;6.80;99.90
6379;DHT22;3222;48.858;10.128;2022-11-14T01:54:59;6.90;99.90
6379;DHT22;3222;48.858;10.128;2022-11-14T01:57:46;6.80;99.90
6379;DHT22;3222;48.858;10.128;2022-11-14T02:00:31;6.90;99.90
6379;DHT22;3222;48.858;10.128;2022-11-14T02:03:15;6.90;99.90
6379;DHT22;3222;48.858;10.128;2022-11-14T02:06:01;6.80;99.90
6379;DHT22;3222;48.858;10.128;2022-11-14T02:08:47;6.70;99.90
6379;DHT22;3222;48.858;10.128;2022-11-14T02:11:36;6.50;99.90
6379;DHT22;3222;48.858;10.128;2022-11-14T02:14:21;6.50;99.90
6379;DHT22;3222;48.858;10.128;2022-11-14T02:17:06;6.40;99.90
6379;DHT22;3222;48.858;10.128;2022-11-14T02:20:34;6.40;99.90
6379;DHT22;3222;48.858;10.128;2022-11-14T02:22:58;6.40;99.90
6379;DHT22;3222;48.858;10.128;2022-11-14T02:25:43;6.40;99.90
6379;DHT22;3222;48.858;10.128;2022-11-14T02:28:27;6.40;99.90
6379;DHT22;3222;48.858;10.128;2022-11-14T02:31:11;6.40;99.90
6379;DHT22;3222;48.858;10.128;2022-11-14T02:33:56;6.40;99.90
6379;DHT22;3222;48.858;10.128;2022-11-14T02:36:40;6.30;99.90
6379;DHT22;3222;48.858;10.128;2022-11-14T02:39:24;6.30;99.90
6379;DHT22;3222;48.858;10.128;2022-11-14T02:42:09;6.40;99.90
6379;DHT22;3222;48.858;10.128;2022-11-14T02:44:53;6.30;99.90
6379;DHT22;3222;48.858;10.128;2022-11-14T02:47:37;6.40;99.90
6379;DHT22;3222;48.858;10.128;2022-11-14T02:50:21;6.30;99.90
6379;DHT22;3222;48.858;10.128;2022-11-14T02:53:05;6.40;99.90
6379;DHT22;3222;48.858;10.128;2022-11-14T02:55:49;6.30;99.90
6379;DHT22;3222;48.858;10.128;2022-11-14T02:58:34;6.30;99.90
6379;DHT22;3222;48.858;10.128;2022-11-14T03:01:18;6.10;99.90
6379;DHT22;3222;48.858;10.128;2022-11-14T03:04:02;6.20;99.90
6379;DHT22;3222;48.858;10.128;2022-11-14T03:06:47;6.20;99.90
6379;DHT22;3222;48.858;10.128;2022-11-14T03:09:31;6.20;99.90
6379;DHT22;3222;48.858;10.128;2022-11-14T03:12:18;6.20;99.90
6379;DHT22;3222;48.858;10.128;2022-11-14T03:15:05;6.40;99.90
6379;DHT22;3222;48.858;10.128;2022-11-14T03:17:49;6.50;99.90
6379;DHT22;3222;48.858;10.128;2022-11-14T03:20:34;6.60;99.90
6379;DHT22;3222;48.858;10.128;2022-11-14T03:23:18;6.40;99.90
6379;DHT22;3222;48.858;10.128;2022-11-14T03:26:04;6.20;99.90
6379;DHT22;3222;48.858;10.128;2022-11-14T03:28:49;6.20;99.90
6379;DHT22;3222;48.858;10.128;2022-11-14T03:31:33;6.20;99.90
6379;DHT22;3222;48.858;10.128;2022-11-14T03:34:20;6.30;99.90
6379;DHT22;3222;48.858;10.128;2022-11-14T03:37:04;6.30;99.90
6379;DHT22;3222;48.858;10.128;2022-11-14T03:39:49;6.40;99.90
6379;DHT22;3222;48.858;10.128;2022-11-14T03:42:34;6.40;99.90
6379;DHT22;3222;48.858;10.128;2022-11-14T03:45:18;6.30;99.90
6379;DHT22;3222;48.858;10.128;2022-11-14T03:48:04;6.20;99.90
6379;DHT22;3222;48.858;10.128;2022-11-14T03:50:49;6.10;99.90
6379;DHT22;3222;48.858;10.128;2022-11-14T03:53:33;6.00;99.90
6379;DHT22;3222;48.858;10.128;2022-11-14T03:56:17;6.00;99.90
6379;DHT22;3222;48.858;10.128;2022-11-14T03:59:01;6.00;99.90
6379;DHT22;3222;48.858;10.128;2022-11-14T04:01:45;6.00;99.90
6379;DHT22;3222;48.858;10.128;2022-11-14T04:04:30;6.00;99.90
6379;DHT22;3222;48.858;10.128;2022-11-14T04:07:14;6.00;99.90
6379;DHT22;3222;48.858;10.128;2022-11-14T04:09:58;6.10;99.90
6379;DHT22;3222;48.858;10.128;2022-11-14T04:12:50;6.10;99.90
6379;DHT22;3222;48.858;10.128;2022-11-14T04:15:35;6.10;99.90
6379;DHT22;3222;48.858;10.128;2022-11-14T04:18:19;6.20;99.90
6379;DHT22;3222;48.858;10.128;2022-11-14T04:21:03;6.10;99.90
6379;DHT22;3222;48.858;10.128;2022-11-14T04:23:47;6.10;99.90
6379;DHT22;3222;48.858;10.128;2022-11-14T04:26:31;6.10;99.90
6379;DHT22;3222;48.858;10.128;2022-11-14T04:29:15;6.20;99.90
6379;DHT22;3222;48.858;10.128;2022-11-14T04:32:00;6.10;99.90
6379;DHT22;3222;48.858;10.128;2022-11-14T04:34:43;6.20;99.90
6379;DHT22;3222;48.858;10.128;2022-11-14T04:37:28;6.20;99.90
6379;DHT22;3222;48.858;10.128;2022-11-14T04:40:12;6.30;99.90
6379;DHT22;3222;48.858;10.128;2022-11-14T04:42:56;6.40;99.90
6379;DHT22;3222;48.858;10.128;2022-11-14T04:45:40;6.30;99.90
6379;DHT22;3222;48.858;10.128;2022-11-14T04:48:24;6.40;99.90
6379;DHT22;3222;48.858;10.128;2022-11-14T04:51:08;6.30;99.90
6379;DHT22;3222;48.858;10.128;2022-11-14T04:53:52;6.20;99.90
6379;DHT22;3222;48.858;10.128;2022-11-14T04:56:36;6.20;99.90
6379;DHT22;3222;48.858;10.128;2022-11-14T04:59:20;6.30;99.90
6379;DHT22;3222;48.858;10.128;2022-11-14T05:02:04;6.20;99.90
6379;DHT22;3222;48.858;10.128;2022-11-14T05:04:48;6.20;99.90
6379;DHT22;3222;48.858;10.128;2022-11-14T05:07:32;6.20;99.90
6379;DHT22;3222;48.858;10.128;2022-11-14T05:10:17;6.10;99.90
6379;DHT22;3222;48.858;10.128;2022-11-14T05:13:01;6.40;99.90
6379;DHT22;3222;48.858;10.128;2022-11-14T05:15:45;6.50;99.90
6379;DHT22;3222;48.858;10.128;2022-11-14T05:18:29;6.40;99.90
6379;DHT22;3222;48.858;10.128;2022-11-14T05:21:14;6.30;99.90
6379;DHT22;3222;48.858;10.128;2022-11-14T05:23:58;6.10;99.90
6379;DHT22;3222;48.858;10.128;2022-11-14T05:26:42;6.10;99.90
6379;DHT22;3222;48.858;10.128;2022-11-14T05:29:26;6.10;99.90
6379;DHT22;3222;48.858;10.128;2022-11-14T05:32:10;5.90;99.90
6379;DHT22;3222;48.858;10.128;2022-11-14T05:34:54;6.20;99.90
6379;DHT22;3222;48.858;10.128;2022-11-14T05:37:38;6.40;99.90
6379;DHT22;3222;48.858;10.128;2022-11-14T05:40:23;6.40;99.90
6379;DHT22;3222;48.858;10.128;2022-11-14T05:43:07;6.40;99.90
6379;DHT22;3222;48.858;10.128;2022-11-14T05:45:51;6.40;99.90
6379;DHT22;3222;48.858;10.128;2022-11-14T05:48:35;6.40;99.90
6379;DHT22;3222;48.858;10.128;2022-11-14T05:51:20;6.40;99.90
6379;DHT22;3222;48.858;10.128;2022-11-14T05:54:04;6.40;99.90
6379;DHT22;3222;48.858;10.128;2022-11-14T05:56:48;6.40;99.90
6379;DHT22;3222;48.858;10.128;2022-11-14T05:59:32;6.30;99.90
6379;DHT22;3222;48.858;10.128;2022-11-14T06:02:16;6.30;99.90
6379;DHT22;3222;48.858;10.128;2022-11-14T06:05:00;6.40;99.90
6379;DHT22;3222;48.858;10.128;2022-11-14T06:07:45;6.30;99.90
6379;DHT22;3222;48.858;10.128;2022-11-14T06:10:29;6.20;99.90
6379;DHT22;3222;48.858;10.128;2022-11-14T06:13:13;6.20;99.90
6379;DHT22;3222;48.858;10.128;2022-11-14T06:16:07;6.20;99.90
6379;DHT22;3222;48.858;10.128;2022-11-14T06:18:53;6.30;99.90
6379;DHT22;3222;48.858;10.128;2022-11-14T06:21:37;6.50;99.90
6379;DHT22;3222;48.858;10.128;2022-11-14T06:24:21;6.50;99.90
6379;DHT22;3222;48.858;10.128;2022-11-14T06:27:06;6.50;99.90
6379;DHT22;3222;48.858;10.128;2022-11-14T06:29:49;6.40;99.90
6379;DHT22;3222;48.858;10.128;2022-11-14T06:32:34;6.30;99.90
6379;DHT22;3222;48.858;10.128;2022-11-14T06:35:18;6.30;99.90
6379;DHT22;3222;48.858;10.128;2022-11-14T06:38:02;6.20;99.90
6379;DHT22;3222;48.858;10.128;2022-11-14T06:40:46;6.30;99.90
6379;DHT22;3222;48.858;10.128;2022-11-14T06:43:34;6.30;99.90
6379;DHT22;3222;48.858;10.128;2022-11-14T06:46:20;6.20;99.90
6379;DHT22;3222;48.858;10.128;2022-11-14T06:49:04;6.20;99.90
6379;DHT22;3222;48.858;10.128;2022-11-14T06:51:49;6.60;99.90
6379;DHT22;3222;48.858;10.128;2022-11-14T06:54:33;6.70;99.90
6379;DHT22;3222;48.858;10.128;2022-11-14T06:57:17;6.70;99.90
6379;DHT22;3222;48.858;10.128;2022-11-14T07:00:02;6.60;99.90
6379;DHT22;3222;48.858;10.128;2022-11-14T07:02:48;6.60;99.90
6379;DHT22;3222;48.858;10.128;2022-11-14T07:05:31;6.50;99.90
6379;DHT22;3222;48.858;10.128;2022-11-14T07:08:16;6.50;99.90
6379;DHT22;3222;48.858;10.128;2022-11-14T07:11:02;6.40;99.90
6379;DHT22;3222;48.858;10.128;2022-11-14T07:13:47;6.40;99.90
6379;DHT22;3222;48.858;10.128;2022-11-14T07:16:34;6.40;99.90
6379;DHT22;3222;48.858;10.128;2022-11-14T07:19:18;6.50;99.90
6379;DHT22;3222;48.858;10.128;2022-11-14T07:22:02;6.60;99.90
6379;DHT22;3222;48.858;10.128;2022-11-14T07:24:46;6.50;99.90
6379;DHT22;3222;48.858;10.128;2022-11-14T07:27:30;6.60;99.90
6379;DHT22;3222;48.858;10.128;2022-11-14T07:30:14;6.60;99.90
6379;DHT22;3222;48.858;10.128;2022-11-14T07:32:59;6.60;99.90
6379;DHT22;3222;48.858;10.128;2022-11-14T07:35:43;6.70;99.90
6379;DHT22;3222;48.858;10.128;2022-11-14T07:38:29;6.60;99.90
6379;DHT22;3222;48.858;10.128;2022-11-14T07:41:15;6.70;99.90
6379;DHT22;3222;48.858;10.128;2022-11-14T07:43:59;6.70;99.90
6379;DHT22;3222;48.858;10.128;2022-11-14T07:46:43;6.80;99.90
6379;DHT22;3222;48.858;10.128;2022-11-14T07:49:27;6.80;99.90
6379;DHT22;3222;48.858;10.128;2022-11-14T07:52:11;6.90;99.90
6379;DHT22;3222;48.858;10.128;2022-11-14T07:54:56;7.00;99.90
6379;DHT22;3222;48.858;10.128;2022-11-14T07:57:40;7.00;99.90
6379;DHT22;3222;48.858;10.128;2022-11-14T08:00:24;7.00;99.90
6379;DHT22;3222;48.858;10.128;2022-11-14T08:03:09;7.10;99.90
6379;DHT22;3222;48.858;10.128;2022-11-14T08:06:05;7.20;99.90
6379;DHT22;3222;48.858;10.128;2022-11-14T08:08:49;7.20;99.90
6379;DHT22;3222;48.858;10.128;2022-11-14T08:11:33;7.30;99.90
6379;DHT22;3222;48.858;10.128;2022-11-14T08:14:33;7.40;99.90
6379;DHT22;3222;48.858;10.128;2022-11-14T08:17:19;7.50;99.90
6379;DHT22;3222;48.858;10.128;2022-11-14T08:20:05;7.60;99.90
6379;DHT22;3222;48.858;10.128;2022-11-14T08:22:49;7.70;99.90
6379;DHT22;3222;48.858;10.128;2022-11-14T08:25:33;7.80;99.90
6379;DHT22;3222;48.858;10.128;2022-11-14T08:28:17;7.90;99.90
6379;DHT22;3222;48.858;10.128;2022-11-14T08:31:02;8.00;99.90
6379;DHT22;3222;48.858;10.128;2022-11-14T08:33:47;8.10;99.90
6379;DHT22;3222;48.858;10.128;2022-11-14T08:36:33;8.30;99.90
6379;DHT22;3222;48.858;10.128;2022-11-14T08:39:17;8.30;99.90
6379;DHT22;3222;48.858;10.128;2022-11-14T08:42:01;8.40;99.90
6379;DHT22;3222;48.858;10.128;2022-11-14T08:44:45;8.40;99.90
6379;DHT22;3222;48.858;10.128;2022-11-14T08:47:29;8.50;99.90
6379;DHT22;3222;48.858;10.128;2022-11-14T08:50:14;8.50;99.90
6379;DHT22;3222;48.858;10.128;2022-11-14T08:52:58;8.60;99.90
6379;DHT22;3222;48.858;10.128;2022-11-14T08:55:47;8.70;99.90
6379;DHT22;3222;48.858;10.128;2022-11-14T08:58:31;8.70;99.90
6379;DHT22;3222;48.858;10.128;2022-11-14T09:01:16;8.80;99.90
6379;DHT22;3222;48.858;10.128;2022-11-14T09:04:00;8.70;99.90
6379;DHT22;3222;48.858;10.128;2022-11-14T09:06:44;8.80;99.90
6379;DHT22;3222;48.858;10.128;2022-11-14T09:09:29;8.90;99.90
6379;DHT22;3222;48.858;10.128;2022-11-14T09:12:13;8.80;99.90
6379;DHT22;3222;48.858;10.128;2022-11-14T09:14:57;8.80;99.90
6379;DHT22;3222;48.858;10.128;2022-11-14T09:17:42;8.80;99.90
6379;DHT22;3222;48.858;10.128;2022-11-14T09:20:26;8.80;99.90
6379;DHT22;3222;48.858;10.128;2022-11-14T09:23:13;8.70;99.90
6379;DHT22;3222;48.858;10.128;2022-11-14T09:25:57;8.60;99.90
6379;DHT22;3222;48.858;10.128;2022-11-14T09:28:41;8.60;99.90
6379;DHT22;3222;48.858;10.128;2022-11-14T09:31:25;8.70;99.90
6379;DHT22;3222;48.858;10.128;2022-11-14T09:34:10;8.80;99.90
6379;DHT22;3222;48.858;10.128;2022-11-14T09:36:54;8.80;99.90
6379;DHT22;3222;48.858;10.128;2022-11-14T09:39:38;8.70;99.90
6379;DHT22;3222;48.858;10.128;2022-11-14T09:42:53;8.80;99.90
6379;DHT22;3222;48.858;10.128;2022-11-14T09:45:45;8.90;99.90
6379;DHT22;3222;48.858;10.128;2022-11-14T09:48:31;8.80;99.90
6379;DHT22;3222;48.858;10.128;2022-11-14T09:51:28;9.10;99.90
6379;DHT22;3222;48.858;10.128;2022-11-14T09:54:25;9.30;99.90
6379;DHT22;3222;48.858;10.128;2022-11-14T09:57:16;9.50;99.90
6379;DHT22;3222;48.858;10.128;2022-11-14T10:00:01;9.60;99.90
6379;DHT22;3222;48.858;10.128;2022-11-14T10:02:48;9.70;99.90
6379;DHT22;3222;48.858;10.128;2022-11-14T10:12:53;10.00;99.90
6379;DHT22;3222;48.858;10.128;2022-11-14T10:16:17;10.00;99.90
6379;DHT22;3222;48.858;10.128;2022-11-14T10:19:26;10.10;99.90
6379;DHT22;3222;48.858;10.128;2022-11-14T10:26:03;10.30;99.90
6379;DHT22;3222;48.858;10.128;2022-11-14T10:37:35;10.50;99.90
6379;DHT22;3222;48.858;10.128;2022-11-14T10:40:35;10.50;99.90
6379;DHT22;3222;48.858;10.128;2022-11-14T10:49:31;10.60;99.90
6379;DHT22;3222;48.858;10.128;2022-11-14T10:52:21;10.80;99.90
6379;DHT22;3222;48.858;10.128;2022-11-14T10:55:17;10.80;99.90
6379;DHT22;3222;48.858;10.128;2022-11-14T10:58:08;10.90;99.90
6379;DHT22;3222;48.858;10.128;2022-11-14T11:00:53;11.00;99.90
6379;DHT22;3222;48.858;10.128;2022-11-14T11:03:41;11.10;99.90
6379;DHT22;3222;48.858;10.128;2022-11-14T11:06:27;11.20;99.90
6379;DHT22;3222;48.858;10.128;2022-11-14T11:09:18;11.10;99.90
6379;DHT22;3222;48.858;10.128;2022-11-14T11:12:23;11.10;99.90
6379;DHT22;3222;48.858;10.128;2022-11-14T11:15:21;11.20;99.90
6379;DHT22;3222;48.858;10.128;2022-11-14T11:18:32;11.10;99.90
6379;DHT22;3222;48.858;10.128;2022-11-14T11:21:21;11.20;99.90
6379;DHT22;3222;48.858;10.128;2022-11-14T11:24:07;11.20;99.90
6379;DHT22;3222;48.858;10.128;2022-11-14T11:30:06;11.30;99.90
6379;DHT22;3222;48.858;10.128;2022-11-14T11:32:51;11.30;99.90
6379;DHT22;3222;48.858;10.128;2022-11-14T11:35:35;11.30;99.90
6379;DHT22;3222;48.858;10.128;2022-11-14T11:38:20;11.40;99.90
6379;DHT22;3222;48.858;10.128;2022-11-14T11:44:03;11.60;99.90
6379;DHT22;3222;48.858;10.128;2022-11-14T11:46:59;11.60;99.90
6379;DHT22;3222;48.858;10.128;2022-11-14T11:49:51;11.60;99.90
6379;DHT22;3222;48.858;10.128;2022-11-14T11:52:43;11.70;99.90
6379;DHT22;3222;48.858;10.128;2022-11-14T11:55:33;11.70;99.90
6379;DHT22;3222;48.858;10.128;2022-11-14T11:58:30;11.80;99.90
6379;DHT22;3222;48.858;10.128;2022-11-14T12:01:16;11.70;99.90
6379;DHT22;3222;48.858;10.128;2022-11-14T12:04:01;11.80;99.90
6379;DHT22;3222;48.858;10.128;2022-11-14T12:06:57;11.80;99.90
6379;DHT22;3222;48.858;10.128;2022-11-14T12:09:44;12.00;99.90
6379;DHT22;3222;48.858;10.128;2022-11-14T12:15:38;12.00;99.90
6379;DHT22;3222;48.858;10.128;2022-11-14T12:18:41;12.10;99.90
6379;DHT22;3222;48.858;10.128;2022-11-14T12:31:32;12.10;99.90
6379;DHT22;3222;48.858;10.128;2022-11-14T12:34:33;12.00;99.90
6379;DHT22;3222;48.858;10.128;2022-11-14T12:37:27;11.90;99.90
6379;DHT22;3222;48.858;10.128;2022-11-14T12:43:23;11.80;99.90
6379;DHT22;3222;48.858;10.128;2022-11-14T12:46:10;11.90;99.90
6379;DHT22;3222;48.858;10.128;2022-11-14T12:48:56;11.80;99.90
6379;DHT22;3222;48.858;10.128;2022-11-14T12:54:44;11.80;99.90
6379;DHT22;3222;48.858;10.128;2022-11-14T12:57:44;11.70;99.90
6379;DHT22;3222;48.858;10.128;2022-11-14T13:00:57;11.60;99.90
6379;DHT22;3222;48.858;10.128;2022-11-14T13:07:24;11.50;99.90
6379;DHT22;3222;48.858;10.128;2022-11-14T13:10:22;11.40;99.90
6379;DHT22;3222;48.858;10.128;2022-11-14T13:13:15;11.40;99.90
6379;DHT22;3222;48.858;10.128;2022-11-14T13:16:28;11.40;99.90
6379;DHT22;3222;48.858;10.128;2022-11-14T13:19:32;11.30;99.90
6379;DHT22;3222;48.858;10.128;2022-11-14T13:22:39;11.20;99.90
6379;DHT22;3222;48.858;10.128;2022-11-14T13:25:23;11.30;99.90
6379;DHT22;3222;48.858;10.128;2022-11-14T13:29:09;11.20;99.90
6379;DHT22;3222;48.858;10.128;2022-11-14T13:31:45;11.20;99.90
6379;DHT22;3222;48.858;10.128;2022-11-14T13:34:51;11.20;99.90
6379;DHT22;3222;48.858;10.128;2022-11-14T13:37:43;11.20;99.90
6379;DHT22;3222;48.858;10.128;2022-11-14T13:40:42;11.20;99.90
6379;DHT22;3222;48.858;10.128;2022-11-14T13:49:50;11.30;99.90
6379;DHT22;3222;48.858;10.128;2022-11-14T13:52:44;11.20;99.90
6379;DHT22;3222;48.858;10.128;2022-11-14T14:07:49;11.30;99.90
6379;DHT22;3222;48.858;10.128;2022-11-14T14:17:12;11.50;99.90
6379;DHT22;3222;48.858;10.128;2022-11-14T14:29:24;11.40;99.90
6379;DHT22;3222;48.858;10.128;2022-11-14T14:32:14;11.40;99.90
6379;DHT22;3222;48.858;10.128;2022-11-14T14:34:58;11.50;99.90
6379;DHT22;3222;48.858;10.128;2022-11-14T14:37:50;11.50;99.90
6379;DHT22;3222;48.858;10.128;2022-11-14T14:40:36;11.50;99.90
6379;DHT22;3222;48.858;10.128;2022-11-14T14:43:33;11.50;99.90
6379;DHT22;3222;48.858;10.128;2022-11-14T14:46:31;11.50;99.90
6379;DHT22;3222;48.858;10.128;2022-11-14T14:49:35;11.50;99.90
6379;DHT22;3222;48.858;10.128;2022-11-14T14:52:34;11.50;99.90
6379;DHT22;3222;48.858;10.128;2022-11-14T14:55:26;11.50;99.90
6379;DHT22;3222;48.858;10.128;2022-11-14T14:58:21;11.40;99.90
6379;DHT22;3222;48.858;10.128;2022-11-14T15:01:13;11.50;99.90
6379;DHT22;3222;48.858;10.128;2022-11-14T15:04:04;11.50;99.90
6379;DHT22;3222;48.858;10.128;2022-11-14T15:06:49;11.50;99.90
6379;DHT22;3222;48.858;10.128;2022-11-14T15:09:34;11.40;99.90
6379;DHT22;3222;48.858;10.128;2022-11-14T15:12:18;11.40;99.90
6379;DHT22;3222;48.858;10.128;2022-11-14T15:15:03;11.40;99.90
6379;DHT22;3222;48.858;10.128;2022-11-14T15:17:49;11.40;99.90
6379;DHT22;3222;48.858;10.128;2022-11-14T15:20:34;11.40;99.90
6379;DHT22;3222;48.858;10.128;2022-11-14T15:23:19;11.40;99.90
6379;DHT22;3222;48.858;10.128;2022-11-14T15:26:13;11.40;99.90
6379;DHT22;3222;48.858;10.128;2022-11-14T15:29:23;11.40;99.90
6379;DHT22;3222;48.858;10.128;2022-11-14T15:32:17;11.40;99.90
6379;DHT22;3222;48.858;10.128;2022-11-14T15:35:23;11.40;99.90
6379;DHT22;3222;48.858;10.128;2022-11-14T15:41:09;11.30;99.90
6379;DHT22;3222;48.858;10.128;2022-11-14T15:43:55;11.30;99.90
6379;DHT22;3222;48.858;10.128;2022-11-14T15:46:46;11.30;99.90
6379;DHT22;3222;48.858;10.128;2022-11-14T15:49:30;11.30;99.90
6379;DHT22;3222;48.858;10.128;2022-11-14T15:52:27;11.30;99.90
6379;DHT22;3222;48.858;10.128;2022-11-14T15:55:16;11.30;99.90
6379;DHT22;3222;48.858;10.128;2022-11-14T15:58:01;11.30;99.90
6379;DHT22;3222;48.858;10.128;2022-11-14T16:00:51;11.30;99.90
6379;DHT22;3222;48.858;10.128;2022-11-14T16:03:36;11.20;99.90
6379;DHT22;3222;48.858;10.128;2022-11-14T16:06:20;11.20;99.90
6379;DHT22;3222;48.858;10.128;2022-11-14T16:09:05;11.20;99.90
6379;DHT22;3222;48.858;10.128;2022-11-14T16:11:49;11.20;99.90
6379;DHT22;3222;48.858;10.128;2022-11-14T16:14:34;11.20;99.90
6379;DHT22;3222;48.858;10.128;2022-11-14T16:17:18;11.20;99.90
6379;DHT22;3222;48.858;10.128;2022-11-14T16:20:09;11.20;99.90
6379;DHT22;3222;48.858;10.128;2022-11-14T16:22:56;11.10;99.90
6379;DHT22;3222;48.858;10.128;2022-11-14T16:25:40;11.20;99.90
6379;DHT22;3222;48.858;10.128;2022-11-14T16:28:25;11.20;99.90
6379;DHT22;3222;48.858;10.128;2022-11-14T16:31:11;11.20;99.90
6379;DHT22;3222;48.858;10.128;2022-11-14T16:33:56;11.20;99.90
6379;DHT22;3222;48.858;10.128;2022-11-14T16:36:40;11.20;99.90
6379;DHT22;3222;48.858;10.128;2022-11-14T16:39:24;11.20;99.90
6379;DHT22;3222;48.858;10.128;2022-11-14T16:42:09;11.20;99.90
6379;DHT22;3222;48.858;10.128;2022-11-14T16:45:01;11.10;99.90
6379;DHT22;3222;48.858;10.128;2022-11-14T16:47:46;11.10;99.90
6379;DHT22;3222;48.858;10.128;2022-11-14T16:50:31;11.10;99.90
6379;DHT22;3222;48.858;10.128;2022-11-14T16:53:15;11.10;99.90
6379;DHT22;3222;48.858;10.128;2022-11-14T16:55:59;11.00;99.90
6379;DHT22;3222;48.858;10.128;2022-11-14T16:58:43;11.00;99.90
6379;DHT22;3222;48.858;10.128;2022-11-14T17:01:27;11.00;99.90
6379;DHT22;3222;48.858;10.128;2022-11-14T17:04:11;11.00;99.90
6379;DHT22;3222;48.858;10.128;2022-11-14T17:06:56;11.00;99.90
6379;DHT22;3222;48.858;10.128;2022-11-14T17:09:40;11.00;99.90
6379;DHT22;3222;48.858;10.128;2022-11-14T17:12:24;11.00;99.90
6379;DHT22;3222;48.858;10.128;2022-11-14T17:15:08;11.00;99.90
6379;DHT22;3222;48.858;10.128;2022-11-14T17:17:52;11.00;99.90
6379;DHT22;3222;48.858;10.128;2022-11-14T17:20:37;10.90;99.90
6379;DHT22;3222;48.858;10.128;2022-11-14T17:23:21;11.00;99.90
6379;DHT22;3222;48.858;10.128;2022-11-14T17:26:12;10.90;99.90
6379;DHT22;3222;48.858;10.128;2022-11-14T17:28:56;10.90;99.90
6379;DHT22;3222;48.858;10.128;2022-11-14T17:31:41;11.00;99.90
6379;DHT22;3222;48.858;10.128;2022-11-14T17:34:25;10.90;99.90
6379;DHT22;3222;48.858;10.128;2022-11-14T17:37:10;10.90;99.90
6379;DHT22;3222;48.858;10.128;2022-11-14T17:39:54;10.90;99.90
6379;DHT22;3222;48.858;10.128;2022-11-14T17:42:38;11.00;99.90
6379;DHT22;3222;48.858;10.128;2022-11-14T17:45:22;10.90;99.90
6379;DHT22;3222;48.858;10.128;2022-11-14T17:48:06;11.00;99.90
6379;DHT22;3222;48.858;10.128;2022-11-14T17:50:51;10.90;99.90
6379;DHT22;3222;48.858;10.128;2022-11-14T17:53:36;10.90;99.90
6379;DHT22;3222;48.858;10.128;2022-11-14T17:56:22;10.80;99.90
6379;DHT22;3222;48.858;10.128;2022-11-14T17:59:06;10.90;99.90
6379;DHT22;3222;48.858;10.128;2022-11-14T18:01:51;10.80;99.90
6379;DHT22;3222;48.858;10.128;2022-11-14T18:04:37;10.90;99.90
6379;DHT22;3222;48.858;10.128;2022-11-14T18:07:21;10.90;99.90
6379;DHT22;3222;48.858;10.128;2022-11-14T18:10:06;10.90;99.90
6379;DHT22;3222;48.858;10.128;2022-11-14T18:12:51;10.80;99.90
6379;DHT22;3222;48.858;10.128;2022-11-14T18:15:36;10.80;99.90
6379;DHT22;3222;48.858;10.128;2022-11-14T18:18:21;10.70;99.90
6379;DHT22;3222;48.858;10.128;2022-11-14T18:21:16;10.80;99.90
6379;DHT22;3222;48.858;10.128;2022-11-14T18:24:01;10.90;99.90
6379;DHT22;3222;48.858;10.128;2022-11-14T18:26:45;10.90;99.90
6379;DHT22;3222;48.858;10.128;2022-11-14T18:29:29;10.80;99.90
6379;DHT22;3222;48.858;10.128;2022-11-14T18:32:14;10.80;99.90
6379;DHT22;3222;48.858;10.128;2022-11-14T18:34:58;10.90;99.90
6379;DHT22;3222;48.858;10.128;2022-11-14T18:37:42;10.80;99.90
6379;DHT22;3222;48.858;10.128;2022-11-14T18:40:26;10.70;99.90
6379;DHT22;3222;48.858;10.128;2022-11-14T18:43:10;10.60;99.90
6379;DHT22;3222;48.858;10.128;2022-11-14T18:45:54;10.70;99.90
6379;DHT22;3222;48.858;10.128;2022-11-14T18:48:40;10.70;99.90
6379;DHT22;3222;48.858;10.128;2022-11-14T18:51:27;10.70;99.90
6379;DHT22;3222;48.858;10.128;2022-11-14T18:54:14;10.80;99.90
6379;DHT22;3222;48.858;10.128;2022-11-14T18:56:59;10.80;99.90
6379;DHT22;3222;48.858;10.128;2022-11-14T18:59:43;10.80;99.90
6379;DHT22;3222;48.858;10.128;2022-11-14T19:02:27;10.80;99.90
6379;DHT22;3222;48.858;10.128;2022-11-14T19:05:11;10.80;99.90
6379;DHT22;3222;48.858;10.128;2022-11-14T19:07:55;10.80;99.90
6379;DHT22;3222;48.858;10.128;2022-11-14T19:10:39;10.80;99.90
6379;DHT22;3222;48.858;10.128;2022-11-14T19:13:23;10.80;99.90
6379;DHT22;3222;48.858;10.128;2022-11-14T19:16:07;10.90;99.90
6379;DHT22;3222;48.858;10.128;2022-11-14T19:18:54;10.80;99.90
6379;DHT22;3222;48.858;10.128;2022-11-14T19:21:39;10.70;99.90
6379;DHT22;3222;48.858;10.128;2022-11-14T19:24:23;10.80;99.90
6379;DHT22;3222;48.858;10.128;2022-11-14T19:27:10;10.80;99.90
6379;DHT22;3222;48.858;10.128;2022-11-14T19:29:54;10.90;99.90
6379;DHT22;3222;48.858;10.128;2022-11-14T19:32:38;10.80;99.90
6379;DHT22;3222;48.858;10.128;2022-11-14T19:35:23;10.80;99.90